Winchester, Idaho
Current Conditions -  °F | °C
As of 4:56 AM on Thursday 30 Oct 2014 (Local Time) from KLWS Reporting Station
Overcast Overcast  
Wind Chill: 50°   Ceiling: 9500
Heat Index: 50°   Visibility: 10mi
Dew Point: 46°   Wind: 6mph
Humidity: 86%   Direction: 120°ESE
Pressure: 30.12"   Gusts: NA
Location:  46.24°N, 116.62°W
Report Text: KLWS 301156Z AUTO 12005KT 10SM OVC095 10/08 A3012 RMK AO2 RAB34E44 SLP199 P0000 60000 T01000078 10111 20094 58014
Loading
Personal Weather Stations






























Interactive Weather Map
Tropical Storm Tracking
New forecast layout! Learn more

10-Day Weather Forecast

Advertisements
Track Severe Weather on mobile